Time;durP1;ratioP1;P1;durP2;ratioP2;P2;SDS_P1;SDS_P2;PMS_P1;PMS_P2;Temp;Humidity;BMP_temperature;BMP_pressure;BME280_temperature;BME280_humidity;BME280_pressure;Samples;Min_cycle;Max_cycle;Signal;HPM_P1;HPM_P2
2023/06/27 00:01:40;;;;;;;10.85;5.60;;;;;;;;;;4981886;28;20487;-68
2023/06/27 00:04:07;;;;;;;10.98;6.30;;;;;;;;;;4983957;28;20322;-68
2023/06/27 00:06:41;;;;;;;10.93;5.60;;;;;;;;;;4968639;28;20030;-67
2023/06/27 00:09:15;;;;;;;11.82;6.30;;;;;;;;;;4985026;28;20041;-67
2023/06/27 00:11:41;;;;;;;12.00;6.10;;;;;;;;;;4965329;28;20037;-67
2023/06/27 00:14:09;;;;;;;11.30;5.40;;;;;;;;;;4971318;28;20495;-68
2023/06/27 00:16:36;;;;;;;11.13;5.25;;;;;;;;;;4982866;28;20029;-66
2023/06/27 00:19:04;;;;;;;11.80;5.45;;;;;;;;;;4964932;28;20059;-67
2023/06/27 00:21:33;;;;;;;9.93;4.72;;;;;;;;;;4981803;28;20026;-66
2023/06/27 00:24:00;;;;;;;13.02;4.88;;;;;;;;;;4980807;28;20688;-67
2023/06/27 00:26:27;;;;;;;12.85;5.55;;;;;;;;;;4963314;28;20198;-66
2023/06/27 00:28:53;;;;;;;11.25;5.10;;;;;;;;;;4984377;28;20137;-66
2023/06/27 00:31:20;;;;;;;11.05;4.90;;;;;;;;;;4983719;28;20462;-67
2023/06/27 00:33:46;;;;;;;12.00;5.00;;;;;;;;;;4983731;28;20502;-67
2023/06/27 00:36:13;;;;;;;11.25;5.10;;;;;;;;;;4984763;28;20116;-67
2023/06/27 00:38:39;;;;;;;12.15;4.65;;;;;;;;;;4983925;28;20034;-67
2023/06/27 00:41:05;;;;;;;9.50;4.93;;;;;;;;;;4969854;28;20558;-69
2023/06/27 00:43:31;;;;;;;10.93;5.05;;;;;;;;;;4981890;28;20033;-68
2023/06/27 00:45:58;;;;;;;9.63;4.47;;;;;;;;;;4982461;28;20034;-68
2023/06/27 00:48:24;;;;;;;10.23;4.90;;;;;;;;;;4983358;28;20125;-68
2023/06/27 00:50:54;;;;;;;8.73;4.70;;;;;;;;;;4982608;28;20169;-68
2023/06/27 00:53:21;;;;;;;9.32;4.50;;;;;;;;;;4965146;28;20136;-68
2023/06/27 00:55:47;;;;;;;10.45;5.15;;;;;;;;;;4984310;28;20030;-68
2023/06/27 00:58:14;;;;;;;10.18;5.00;;;;;;;;;;4981794;28;20574;-68
2023/06/27 01:00:40;;;;;;;10.07;4.82;;;;;;;;;;4963971;28;20146;-69
2023/06/27 01:03:06;;;;;;;10.48;4.80;;;;;;;;;;4983561;28;20076;-68
2023/06/27 01:05:33;;;;;;;9.60;4.97;;;;;;;;;;4983846;28;20037;-68
2023/06/27 01:08:08;;;;;;;9.63;4.65;;;;;;;;;;4978044;28;20351;-68
2023/06/27 01:10:43;;;;;;;9.60;5.00;;;;;;;;;;4985430;28;20052;-68
2023/06/27 01:13:11;;;;;;;8.70;4.60;;;;;;;;;;4982000;28;20486;-68
2023/06/27 01:15:39;;;;;;;8.80;4.47;;;;;;;;;;4984386;28;20032;-68
2023/06/27 01:18:06;;;;;;;9.65;4.45;;;;;;;;;;4963129;28;20582;-67
2023/06/27 01:20:33;;;;;;;10.43;4.28;;;;;;;;;;4965872;28;21229;-67
2023/06/27 01:23:12;;;;;;;9.63;4.70;;;;;;;;;;4962385;28;20121;-67
2023/06/27 01:25:38;;;;;;;9.38;4.55;;;;;;;;;;4959942;28;20031;-67
2023/06/27 01:28:05;;;;;;;10.27;4.43;;;;;;;;;;4966955;28;20433;-67
2023/06/27 01:30:34;;;;;;;10.30;5.30;;;;;;;;;;4961145;28;20141;-67
2023/06/27 01:33:20;;;;;;;9.13;4.60;;;;;;;;;;4958287;28;20046;-67
2023/06/27 01:35:46;;;;;;;;;;;;;;;;;;4961858;28;20041;-67
2023/06/27 01:38:16;;;;;;;9.93;5.07;;;;;;;;;;4964459;28;19914;-67
2023/06/27 01:40:43;;;;;;;11.40;4.78;;;;;;;;;;4958092;28;20043;-67
2023/06/27 01:43:11;;;;;;;9.48;4.90;;;;;;;;;;4960801;28;20045;-67
2023/06/27 01:45:39;;;;;;;9.85;4.82;;;;;;;;;;4961925;28;20245;-67
2023/06/27 01:48:06;;;;;;;9.20;4.68;;;;;;;;;;4959416;28;20022;-68
2023/06/27 01:50:32;;;;;;;10.07;4.80;;;;;;;;;;4966295;28;20061;-68
2023/06/27 01:52:58;;;;;;;9.63;4.97;;;;;;;;;;4963606;28;20049;-68
2023/06/27 01:55:25;;;;;;;10.02;5.20;;;;;;;;;;4969385;28;20516;-67
2023/06/27 01:57:52;;;;;;;13.02;5.07;;;;;;;;;;4963276;28;20406;-68
2023/06/27 02:00:18;;;;;;;9.80;4.80;;;;;;;;;;4965620;28;20031;-66
2023/06/27 02:02:44;;;;;;;9.00;4.72;;;;;;;;;;4961953;28;20591;-67
2023/06/27 02:05:11;;;;;;;10.48;4.63;;;;;;;;;;4967849;28;20658;-67
2023/06/27 02:07:37;;;;;;;9.50;4.80;;;;;;;;;;4961916;28;20110;-67
2023/06/27 02:10:03;;;;;;;9.20;4.65;;;;;;;;;;4964991;28;20033;-67
2023/06/27 02:12:29;;;;;;;12.50;4.72;;;;;;;;;;4966834;28;20141;-67
2023/06/27 02:14:55;;;;;;;9.43;4.70;;;;;;;;;;4965072;28;20061;-67
2023/06/27 02:17:21;;;;;;;13.73;4.90;;;;;;;;;;4965878;28;20516;-67
2023/06/27 02:19:47;;;;;;;10.35;4.70;;;;;;;;;;4985143;28;20037;-67
2023/06/27 02:22:14;;;;;;;10.15;4.80;;;;;;;;;;4982045;28;20045;-67
2023/06/27 02:24:40;;;;;;;12.00;5.00;;;;;;;;;;4983566;28;20038;-67
2023/06/27 02:27:06;;;;;;;9.35;5.25;;;;;;;;;;4983996;28;20041;-67
2023/06/27 02:29:32;;;;;;;9.27;4.95;;;;;;;;;;4985775;28;20117;-67
2023/06/27 02:31:58;;;;;;;9.52;5.35;;;;;;;;;;4983852;28;20033;-67
2023/06/27 02:34:24;;;;;;;9.40;5.10;;;;;;;;;;4985555;28;20030;-67
2023/06/27 02:36:50;;;;;;;9.27;4.80;;;;;;;;;;4982045;28;20769;-68
2023/06/27 02:39:17;;;;;;;9.63;5.32;;;;;;;;;;4954166;28;20044;-67
2023/06/27 02:41:43;;;;;;;9.27;5.15;;;;;;;;;;4985017;28;20080;-67
2023/06/27 02:44:09;;;;;;;9.65;4.80;;;;;;;;;;4987452;28;20475;-67
2023/06/27 02:46:35;;;;;;;9.18;5.10;;;;;;;;;;4987245;28;20575;-67
2023/06/27 02:49:01;;;;;;;10.10;5.00;;;;;;;;;;4979375;28;20040;-68
2023/06/27 02:51:27;;;;;;;8.70;4.60;;;;;;;;;;4984787;28;20022;-67
2023/06/27 02:53:53;;;;;;;9.43;5.07;;;;;;;;;;4979666;28;20460;-68
2023/06/27 02:56:19;;;;;;;11.85;4.97;;;;;;;;;;4982972;28;20228;-68
2023/06/27 02:58:46;;;;;;;9.55;4.97;;;;;;;;;;4980517;28;20172;-68
2023/06/27 03:01:12;;;;;;;8.57;4.60;;;;;;;;;;4984062;28;20033;-68
2023/06/27 03:03:38;;;;;;;10.18;4.82;;;;;;;;;;4987791;28;20400;-67
2023/06/27 03:06:08;;;;;;;9.68;5.68;;;;;;;;;;4985070;28;20559;-67
2023/06/27 03:08:35;;;;;;;9.88;5.03;;;;;;;;;;4965867;28;20022;-67
2023/06/27 03:11:02;;;;;;;10.32;4.80;;;;;;;;;;4981860;28;20033;-67
2023/06/27 03:13:28;;;;;;;9.93;4.72;;;;;;;;;;4985030;28;20056;-67
2023/06/27 03:15:54;;;;;;;9.75;4.75;;;;;;;;;;4983106;28;20558;-67
2023/06/27 03:18:20;;;;;;;11.13;4.90;;;;;;;;;;4985229;28;20338;-67
2023/06/27 03:20:47;;;;;;;9.75;4.78;;;;;;;;;;4982426;28;20049;-68
2023/06/27 03:23:13;;;;;;;9.60;4.90;;;;;;;;;;4971050;28;20351;-67
2023/06/27 03:25:39;;;;;;;9.18;5.05;;;;;;;;;;4982297;28;20089;-67
2023/06/27 03:28:06;;;;;;;9.68;5.28;;;;;;;;;;4983489;28;20032;-68
2023/06/27 03:30:32;;;;;;;9.35;5.10;;;;;;;;;;4986716;28;20029;-67
2023/06/27 03:32:59;;;;;;;9.40;4.68;;;;;;;;;;4981313;28;20668;-67
2023/06/27 03:35:25;;;;;;;8.43;4.63;;;;;;;;;;4971791;28;20041;-67
2023/06/27 03:37:51;;;;;;;9.75;5.35;;;;;;;;;;4955327;28;20457;-67
2023/06/27 03:40:18;;;;;;;8.73;4.82;;;;;;;;;;4970522;28;20111;-68
2023/06/27 03:42:44;;;;;;;10.82;5.20;;;;;;;;;;4980914;28;20513;-68
2023/06/27 03:45:10;;;;;;;9.60;4.97;;;;;;;;;;4984766;28;20108;-68
2023/06/27 03:47:38;;;;;;;10.27;5.18;;;;;;;;;;4984415;28;20037;-69
2023/06/27 03:50:04;;;;;;;9.52;4.78;;;;;;;;;;4984347;28;20022;-67
2023/06/27 03:52:31;;;;;;;9.93;5.03;;;;;;;;;;4968207;28;20361;-67
2023/06/27 03:54:57;;;;;;;11.32;5.18;;;;;;;;;;4981808;28;20045;-67
2023/06/27 03:57:23;;;;;;;9.82;5.50;;;;;;;;;;4970292;28;20188;-66
2023/06/27 03:59:49;;;;;;;10.15;5.18;;;;;;;;;;4982987;28;20047;-67
2023/06/27 04:02:15;;;;;;;12.10;5.55;;;;;;;;;;4986500;28;20091;-67
2023/06/27 04:04:42;;;;;;;10.23;5.38;;;;;;;;;;4983435;28;20395;-67
2023/06/27 04:07:08;;;;;;;9.82;5.18;;;;;;;;;;4982201;28;20038;-67
2023/06/27 04:09:35;;;;;;;11.82;5.43;;;;;;;;;;4983976;28;20318;-67
2023/06/27 04:12:01;;;;;;;9.70;5.05;;;;;;;;;;4967925;28;20476;-67
2023/06/27 04:14:27;;;;;;;9.18;5.10;;;;;;;;;;4984067;28;20877;-67
2023/06/27 04:16:54;;;;;;;10.23;5.30;;;;;;;;;;4977744;28;20605;-68
2023/06/27 04:19:20;;;;;;;10.23;5.50;;;;;;;;;;4981081;28;20129;-68
2023/06/27 04:21:46;;;;;;;11.05;5.32;;;;;;;;;;4963386;28;20085;-66
2023/06/27 04:24:12;;;;;;;10.43;5.30;;;;;;;;;;4981211;28;20034;-68
2023/06/27 04:26:38;;;;;;;10.60;5.55;;;;;;;;;;4984349;28;20036;-66
2023/06/27 04:29:04;;;;;;;11.25;5.45;;;;;;;;;;4963376;28;20500;-66
2023/06/27 04:31:32;;;;;;;10.05;5.25;;;;;;;;;;4975735;28;20030;-68
2023/06/27 04:33:59;;;;;;;9.85;5.20;;;;;;;;;;4979136;28;20049;-66
2023/06/27 04:36:28;;;;;;;9.55;5.07;;;;;;;;;;4979643;28;20965;-67
2023/06/27 04:38:55;;;;;;;11.10;5.10;;;;;;;;;;4981741;28;20030;-67
2023/06/27 04:41:21;;;;;;;11.13;5.00;;;;;;;;;;4983834;28;20025;-67
2023/06/27 04:43:47;;;;;;;10.40;5.25;;;;;;;;;;4976290;28;20125;-67
2023/06/27 04:46:13;;;;;;;9.15;4.82;;;;;;;;;;4989416;28;20348;-67
2023/06/27 04:48:40;;;;;;;10.65;5.30;;;;;;;;;;4982992;28;20041;-68
2023/06/27 04:51:06;;;;;;;10.43;5.03;;;;;;;;;;4980371;28;20160;-67
2023/06/27 04:53:32;;;;;;;10.63;5.10;;;;;;;;;;4985802;28;20033;-67
2023/06/27 04:55:58;;;;;;;10.75;5.47;;;;;;;;;;4978513;28;20034;-66
2023/06/27 04:58:24;;;;;;;10.23;5.35;;;;;;;;;;4978708;28;20030;-67
2023/06/27 05:00:51;;;;;;;10.20;5.00;;;;;;;;;;4981475;28;20034;-66
2023/06/27 05:03:18;;;;;;;9.40;5.32;;;;;;;;;;4965719;28;20404;-66
2023/06/27 05:05:44;;;;;;;11.45;5.68;;;;;;;;;;4976567;28;20636;-66
2023/06/27 05:08:11;;;;;;;9.75;4.97;;;;;;;;;;4979599;28;20037;-68
2023/06/27 05:10:37;;;;;;;9.55;5.55;;;;;;;;;;4981670;28;20022;-66
2023/06/27 05:13:03;;;;;;;12.07;5.22;;;;;;;;;;4978468;28;20032;-67
2023/06/27 05:15:30;;;;;;;10.07;5.50;;;;;;;;;;4982201;28;20121;-67
2023/06/27 05:18:09;;;;;;;11.55;5.90;;;;;;;;;;4974481;28;20057;-67
2023/06/27 05:20:35;;;;;;;10.35;5.22;;;;;;;;;;4975513;28;20046;-67
2023/06/27 05:23:02;;;;;;;10.98;5.05;;;;;;;;;;4978868;28;20211;-67
2023/06/27 05:25:28;;;;;;;11.55;5.28;;;;;;;;;;4979958;28;20030;-67
2023/06/27 05:27:54;;;;;;;10.73;5.07;;;;;;;;;;4978717;28;20506;-67
2023/06/27 05:30:21;;;;;;;10.63;5.20;;;;;;;;;;4981776;28;20690;-67
2023/06/27 05:32:47;;;;;;;13.00;5.60;;;;;;;;;;4979160;28;20029;-67
2023/06/27 05:35:13;;;;;;;31.50;6.55;;;;;;;;;;4980219;28;20146;-67
2023/06/27 05:37:40;;;;;;;29.95;7.50;;;;;;;;;;4983754;28;20029;-68
2023/06/27 05:40:06;;;;;;;49.58;9.65;;;;;;;;;;4983045;28;20522;-66
2023/06/27 05:42:32;;;;;;;23.83;7.70;;;;;;;;;;4983002;28;20026;-67
2023/06/27 05:44:59;;;;;;;15.75;6.20;;;;;;;;;;4981632;28;20088;-67
2023/06/27 05:47:25;;;;;;;14.15;4.97;;;;;;;;;;4964363;28;20330;-67
2023/06/27 05:49:52;;;;;;;12.75;4.90;;;;;;;;;;4979614;28;20037;-67
2023/06/27 05:52:18;;;;;;;12.95;4.32;;;;;;;;;;4982109;28;20255;-67
2023/06/27 05:54:44;;;;;;;18.38;5.03;;;;;;;;;;4979839;28;20080;-67
2023/06/27 05:57:10;;;;;;;20.60;4.88;;;;;;;;;;4967570;28;20491;-67
2023/06/27 05:59:37;;;;;;;15.02;4.40;;;;;;;;;;4983900;28;20034;-67
2023/06/27 06:02:03;;;;;;;10.75;4.78;;;;;;;;;;4974404;28;20033;-67
2023/06/27 06:04:30;;;;;;;15.18;4.70;;;;;;;;;;4979731;28;20034;-67
2023/06/27 06:06:58;;;;;;;11.00;4.05;;;;;;;;;;4979497;28;20030;-67
2023/06/27 06:09:24;;;;;;;11.25;3.97;;;;;;;;;;4981310;28;20103;-67
2023/06/27 06:11:50;;;;;;;9.25;3.67;;;;;;;;;;4982766;28;20054;-67
2023/06/27 06:14:17;;;;;;;9.90;3.90;;;;;;;;;;4971692;28;20057;-68
2023/06/27 06:16:43;;;;;;;9.75;3.97;;;;;;;;;;4981608;28;20025;-68
2023/06/27 06:19:11;;;;;;;10.30;3.80;;;;;;;;;;4986407;28;20062;-67
2023/06/27 06:21:37;;;;;;;9.88;3.60;;;;;;;;;;4953361;28;20035;-67
2023/06/27 06:24:04;;;;;;;9.52;3.97;;;;;;;;;;4978453;28;20040;-68
2023/06/27 06:26:30;;;;;;;9.63;3.95;;;;;;;;;;4980751;28;20073;-68
2023/06/27 06:28:56;;;;;;;9.70;3.78;;;;;;;;;;4980593;28;20036;-67
2023/06/27 06:31:24;;;;;;;9.68;3.75;;;;;;;;;;4970006;28;20510;-68
2023/06/27 06:33:51;;;;;;;10.18;3.20;;;;;;;;;;4983475;28;20096;-68
2023/06/27 06:36:18;;;;;;;12.07;4.68;;;;;;;;;;4986761;28;20896;-68
2023/06/27 06:38:45;;;;;;;8.15;3.63;;;;;;;;;;4984285;28;20029;-67
2023/06/27 06:41:11;;;;;;;8.73;4.05;;;;;;;;;;4986150;28;20091;-68
2023/06/27 06:43:37;;;;;;;8.80;3.58;;;;;;;;;;4987009;28;20756;-68
2023/06/27 06:46:03;;;;;;;8.95;4.07;;;;;;;;;;4982973;28;20124;-68
2023/06/27 06:48:29;;;;;;;12.40;4.25;;;;;;;;;;4985680;28;20036;-67
2023/06/27 06:50:56;;;;;;;9.63;4.13;;;;;;;;;;4983147;28;20034;-68
2023/06/27 06:53:22;;;;;;;9.43;3.55;;;;;;;;;;4987980;28;20274;-68
2023/06/27 06:55:48;;;;;;;9.90;3.80;;;;;;;;;;4984718;28;20034;-68
2023/06/27 06:58:14;;;;;;;10.98;3.88;;;;;;;;;;4986483;28;20560;-67
2023/06/27 07:00:40;;;;;;;8.85;4.05;;;;;;;;;;4983982;28;20069;-68
2023/06/27 07:03:09;;;;;;;8.35;3.35;;;;;;;;;;4988700;28;20037;-67
2023/06/27 07:05:36;;;;;;;8.70;3.80;;;;;;;;;;4984733;28;20050;-68
2023/06/27 07:08:03;;;;;;;12.18;3.83;;;;;;;;;;4983847;28;20189;-68
2023/06/27 07:10:30;;;;;;;8.50;3.50;;;;;;;;;;4987162;28;20037;-68
2023/06/27 07:12:57;;;;;;;10.30;3.67;;;;;;;;;;4982570;28;20089;-68
2023/06/27 07:15:23;;;;;;;8.23;3.30;;;;;;;;;;4986196;28;20566;-69
2023/06/27 07:17:53;;;;;;;6.95;3.03;;;;;;;;;;4988646;28;20061;-68
2023/06/27 07:20:22;;;;;;;10.18;3.22;;;;;;;;;;4989062;28;20111;-68
2023/06/27 07:22:51;;;;;;;10.55;3.63;;;;;;;;;;4983927;28;20681;-68
2023/06/27 07:25:17;;;;;;;7.47;3.40;;;;;;;;;;4985469;28;20126;-68
2023/06/27 07:27:44;;;;;;;10.38;4.03;;;;;;;;;;4984315;28;20037;-67
2023/06/27 07:30:10;;;;;;;9.68;3.72;;;;;;;;;;4974810;28;20460;-68
2023/06/27 07:32:36;;;;;;;7.50;3.63;;;;;;;;;;4988018;28;20527;-68
2023/06/27 07:35:04;;;;;;;8.35;3.60;;;;;;;;;;4986259;28;20036;-68
2023/06/27 07:37:30;;;;;;;9.43;3.60;;;;;;;;;;4986827;28;20033;-68
2023/06/27 07:39:57;;;;;;;9.32;3.10;;;;;;;;;;4983063;28;20034;-68
2023/06/27 07:42:24;;;;;;;7.75;3.55;;;;;;;;;;4988360;28;20044;-68
2023/06/27 07:44:50;;;;;;;10.93;3.75;;;;;;;;;;4984300;28;20091;-68
2023/06/27 07:47:16;;;;;;;9.90;3.88;;;;;;;;;;4982410;28;20033;-68
2023/06/27 07:49:42;;;;;;;11.00;4.57;;;;;;;;;;4981895;28;20257;-68
2023/06/27 07:52:09;;;;;;;8.80;3.85;;;;;;;;;;4984021;28;20073;-68
2023/06/27 07:54:36;;;;;;;9.30;4.03;;;;;;;;;;4987673;28;20530;-68
2023/06/27 07:57:02;;;;;;;8.35;3.60;;;;;;;;;;4969474;28;20041;-68
2023/06/27 07:59:28;;;;;;;9.55;3.75;;;;;;;;;;4987066;28;20204;-68
2023/06/27 08:01:55;;;;;;;10.52;3.58;;;;;;;;;;4985500;28;20766;-67
2023/06/27 08:04:22;;;;;;;9.57;3.80;;;;;;;;;;4986045;28;20033;-68
2023/06/27 08:06:48;;;;;;;9.65;4.38;;;;;;;;;;4985618;28;20029;-68
2023/06/27 08:09:14;;;;;;;8.27;3.90;;;;;;;;;;4964973;28;20207;-68
2023/06/27 08:11:40;;;;;;;9.75;4.32;;;;;;;;;;4985468;28;20476;-68
2023/06/27 08:14:06;;;;;;;7.25;3.33;;;;;;;;;;4986367;28;20080;-68
2023/06/27 08:16:33;;;;;;;8.07;3.65;;;;;;;;;;4985513;28;20038;-67
2023/06/27 08:19:00;;;;;;;7.97;3.53;;;;;;;;;;4968708;28;21399;-68
2023/06/27 08:21:26;;;;;;;11.50;3.50;;;;;;;;;;4985558;28;20036;-68
2023/06/27 08:23:52;;;;;;;9.40;3.47;;;;;;;;;;4983223;28;20127;-68
2023/06/27 08:26:18;;;;;;;9.85;3.50;;;;;;;;;;4984714;28;20048;-67
2023/06/27 08:28:45;;;;;;;8.43;3.80;;;;;;;;;;4980755;28;20413;-68
2023/06/27 08:31:12;;;;;;;8.13;3.47;;;;;;;;;;4988825;28;20030;-67
2023/06/27 08:33:38;;;;;;;8.85;3.50;;;;;;;;;;4983763;28;20431;-67
2023/06/27 08:36:05;;;;;;;9.70;3.65;;;;;;;;;;4965828;28;20421;-69
2023/06/27 08:38:31;;;;;;;8.68;3.30;;;;;;;;;;4986001;28;20117;-69
2023/06/27 08:40:57;;;;;;;7.70;3.55;;;;;;;;;;4983457;28;20069;-69
2023/06/27 08:43:25;;;;;;;9.60;3.50;;;;;;;;;;4982307;28;20034;-67
2023/06/27 08:45:52;;;;;;;8.23;3.65;;;;;;;;;;4985995;28;20551;-67
2023/06/27 08:48:18;;;;;;;8.00;4.00;;;;;;;;;;4967898;28;20167;-67
2023/06/27 08:50:45;;;;;;;7.68;3.45;;;;;;;;;;4983198;28;20042;-68
2023/06/27 08:53:17;;;;;;;7.93;3.58;;;;;;;;;;4981255;28;20329;-67
2023/06/27 08:56:00;;;;;;;7.35;2.80;;;;;;;;;;4982280;28;20068;-67
2023/06/27 08:58:50;;;;;;;7.43;3.33;;;;;;;;;;4970861;28;20065;-67
2023/06/27 09:01:16;;;;;;;7.72;3.35;;;;;;;;;;4971470;28;20597;-68
2023/06/27 09:03:43;;;;;;;8.82;3.30;;;;;;;;;;4980129;28;20136;-67
2023/06/27 09:06:09;;;;;;;7.75;3.35;;;;;;;;;;4978496;28;20546;-67
2023/06/27 09:08:35;;;;;;;7.90;3.38;;;;;;;;;;4971450;28;20266;-67
2023/06/27 09:11:04;;;;;;;7.45;3.53;;;;;;;;;;4981195;28;20126;-67
2023/06/27 09:13:30;;;;;;;8.38;3.78;;;;;;;;;;4986715;28;20095;-70
2023/06/27 09:15:56;;;;;;;7.47;3.28;;;;;;;;;;4982858;28;20159;-67
2023/06/27 09:18:23;;;;;;;11.05;3.60;;;;;;;;;;4983788;28;20571;-69
2023/06/27 09:20:49;;;;;;;11.07;3.60;;;;;;;;;;4983422;28;20527;-69
2023/06/27 09:23:15;;;;;;;7.72;3.38;;;;;;;;;;4984414;28;20479;-69
2023/06/27 09:25:42;;;;;;;7.95;3.50;;;;;;;;;;4982061;28;20037;-69
2023/06/27 09:28:18;;;;;;;8.43;3.65;;;;;;;;;;4985361;28;20404;-69
2023/06/27 09:30:57;;;;;;;8.75;3.28;;;;;;;;;;4980646;28;20034;-69
2023/06/27 09:33:24;;;;;;;7.82;3.35;;;;;;;;;;4984452;28;20042;-69
2023/06/27 09:35:50;;;;;;;7.78;3.42;;;;;;;;;;4984205;28;20029;-69
2023/06/27 09:38:20;;;;;;;10.02;3.55;;;;;;;;;;4985847;28;20026;-69
2023/06/27 09:40:48;;;;;;;8.32;3.40;;;;;;;;;;4980538;28;20140;-67
2023/06/27 09:43:15;;;;;;;8.55;3.70;;;;;;;;;;4967694;28;20488;-68
2023/06/27 09:45:41;;;;;;;8.00;3.35;;;;;;;;;;4960544;28;20032;-68
2023/06/27 09:48:10;;;;;;;7.88;3.45;;;;;;;;;;4982025;28;20030;-69
2023/06/27 09:50:38;;;;;;;7.80;3.30;;;;;;;;;;4971135;28;20030;-68
2023/06/27 09:53:04;;;;;;;6.85;3.05;;;;;;;;;;4978452;28;20108;-68
2023/06/27 09:55:30;;;;;;;10.20;3.35;;;;;;;;;;4983643;28;20615;-68
2023/06/27 09:57:57;;;;;;;8.35;3.20;;;;;;;;;;4963982;28;20045;-68
2023/06/27 10:00:26;;;;;;;8.23;3.38;;;;;;;;;;4969696;28;20045;-68
2023/06/27 10:02:52;;;;;;;7.25;3.20;;;;;;;;;;4965180;28;20129;-68
2023/06/27 10:05:20;;;;;;;7.82;3.38;;;;;;;;;;4967479;28;20030;-68
2023/06/27 10:07:47;;;;;;;9.07;3.58;;;;;;;;;;4979436;28;20065;-70
2023/06/27 10:10:14;;;;;;;8.45;3.63;;;;;;;;;;4989545;28;20068;-69
2023/06/27 10:12:40;;;;;;;7.95;3.17;;;;;;;;;;4983996;28;20084;-70
2023/06/27 10:15:08;;;;;;;8.23;3.50;;;;;;;;;;4985545;28;20036;-69
2023/06/27 10:17:35;;;;;;;10.73;3.42;;;;;;;;;;4971884;28;20523;-70
2023/06/27 10:20:07;;;;;;;10.77;3.38;;;;;;;;;;4990755;28;20057;-69
2023/06/27 10:22:34;;;;;;;8.95;3.28;;;;;;;;;;4973374;28;20046;-68
2023/06/27 10:25:03;;;;;;;7.45;3.33;;;;;;;;;;4968582;28;20618;-68
2023/06/27 10:27:32;;;;;;;11.07;3.45;;;;;;;;;;4971240;28;20115;-68
2023/06/27 10:29:58;;;;;;;10.32;3.72;;;;;;;;;;4969215;28;20088;-70
2023/06/27 10:32:36;;;;;;;11.10;3.78;;;;;;;;;;4975658;28;20152;-68
2023/06/27 10:35:09;;;;;;;12.05;3.75;;;;;;;;;;4987620;28;20060;-68
2023/06/27 10:37:35;;;;;;;10.38;3.88;;;;;;;;;;4982399;28;20062;-68
2023/06/27 10:40:03;;;;;;;10.27;3.35;;;;;;;;;;4983636;28;20027;-67
2023/06/27 10:42:31;;;;;;;9.50;3.90;;;;;;;;;;4987097;28;20237;-69
2023/06/27 10:44:57;;;;;;;9.68;3.72;;;;;;;;;;4986314;28;20026;-68
2023/06/27 10:47:23;;;;;;;11.07;4.13;;;;;;;;;;4970490;28;20468;-68
2023/06/27 10:49:49;;;;;;;8.23;3.42;;;;;;;;;;4985448;28;20091;-69
2023/06/27 10:52:25;;;;;;;10.15;3.85;;;;;;;;;;4985385;28;20142;-68
2023/06/27 10:55:10;;;;;;;8.80;3.60;;;;;;;;;;4981406;28;20570;-68
2023/06/27 10:57:40;;;;;;;8.85;3.72;;;;;;;;;;4984348;28;20035;-68
2023/06/27 11:00:13;;;;;;;9.45;3.58;;;;;;;;;;4971556;28;20231;-68
2023/06/27 11:02:43;;;;;;;8.15;3.78;;;;;;;;;;4984557;28;20565;-68
2023/06/27 11:05:16;;;;;;;9.27;3.58;;;;;;;;;;4986574;28;20021;-68
2023/06/27 11:07:52;;;;;;;9.38;3.67;;;;;;;;;;4987411;28;20050;-68
2023/06/27 11:10:31;;;;;;;15.02;4.05;;;;;;;;;;4986049;28;20681;-68
2023/06/27 11:13:27;;;;;;;8.73;3.60;;;;;;;;;;4983789;28;20660;-68
2023/06/27 11:15:53;;;;;;;;;;;;;;;;;;4966134;28;20053;-68
2023/06/27 11:18:20;;;;;;;8.40;3.53;;;;;;;;;;4987114;28;20378;-68
2023/06/27 11:20:46;;;;;;;11.50;3.78;;;;;;;;;;4966193;28;20231;-68
2023/06/27 11:23:14;;;;;;;8.38;3.70;;;;;;;;;;4987846;28;20121;-68
2023/06/27 11:25:44;;;;;;;11.25;4.00;;;;;;;;;;4967856;28;20373;-68
2023/06/27 11:28:11;;;;;;;10.70;3.95;;;;;;;;;;4983578;28;20109;-68
2023/06/27 11:30:38;;;;;;;10.70;3.38;;;;;;;;;;4982328;28;20116;-68
2023/06/27 11:33:04;;;;;;;10.30;4.30;;;;;;;;;;4982777;28;20140;-68
2023/06/27 11:35:34;;;;;;;10.40;4.20;;;;;;;;;;4967532;28;20113;-69
2023/06/27 11:38:00;;;;;;;9.18;3.78;;;;;;;;;;4965475;28;20444;-68
2023/06/27 11:40:29;;;;;;;10.93;3.65;;;;;;;;;;4988355;28;20451;-68
2023/06/27 11:43:02;;;;;;;30.33;6.53;;;;;;;;;;4962053;28;20049;-68
2023/06/27 11:45:28;;;;;;;13.85;4.47;;;;;;;;;;4966385;28;20061;-68
2023/06/27 11:47:54;;;;;;;9.10;4.05;;;;;;;;;;4977981;28;20040;-70
2023/06/27 11:50:21;;;;;;;9.00;3.67;;;;;;;;;;4983028;28;20037;-68
2023/06/27 11:52:47;;;;;;;9.02;3.65;;;;;;;;;;4981001;28;20026;-68
2023/06/27 11:55:14;;;;;;;12.57;4.20;;;;;;;;;;4983177;28;20029;-69
2023/06/27 11:57:41;;;;;;;24.88;4.80;;;;;;;;;;4964288;28;20140;-68
2023/06/27 12:00:12;;;;;;;13.48;4.38;;;;;;;;;;4982518;28;20034;-70
2023/06/27 12:02:39;;;;;;;16.17;4.57;;;;;;;;;;4983109;28;20041;-68
2023/06/27 12:05:12;;;;;;;12.82;4.40;;;;;;;;;;4979796;28;20034;-68
2023/06/27 12:07:38;;;;;;;11.25;4.22;;;;;;;;;;4984128;28;20111;-69
2023/06/27 12:10:08;;;;;;;11.60;4.30;;;;;;;;;;4977637;28;20339;-70
2023/06/27 12:12:40;;;;;;;10.02;4.00;;;;;;;;;;4979254;28;20134;-69
2023/06/27 12:15:11;;;;;;;9.50;4.03;;;;;;;;;;4967213;28;20504;-68
2023/06/27 12:17:37;;;;;;;9.90;4.07;;;;;;;;;;4960878;28;20053;-68
2023/06/27 12:20:05;;;;;;;10.65;4.47;;;;;;;;;;4973364;28;20030;-68
2023/06/27 12:22:31;;;;;;;12.43;4.35;;;;;;;;;;4974177;28;20154;-68
2023/06/27 12:24:58;;;;;;;10.50;4.05;;;;;;;;;;4979184;28;20484;-69
2023/06/27 12:27:24;;;;;;;13.35;4.50;;;;;;;;;;4981887;28;20146;-68
2023/06/27 12:29:50;;;;;;;10.45;4.13;;;;;;;;;;4978587;28;20121;-68
2023/06/27 12:32:16;;;;;;;9.93;4.28;;;;;;;;;;4975466;28;20035;-68
2023/06/27 12:34:42;;;;;;;11.88;4.30;;;;;;;;;;4959130;28;20492;-68
2023/06/27 12:37:08;;;;;;;9.93;4.80;;;;;;;;;;4983520;28;20117;-68
2023/06/27 12:39:35;;;;;;;10.05;4.30;;;;;;;;;;4963233;28;20148;-68
2023/06/27 12:42:01;;;;;;;9.70;4.63;;;;;;;;;;4978555;28;20602;-68
2023/06/27 12:44:27;;;;;;;11.35;4.40;;;;;;;;;;4946425;28;20038;-69
2023/06/27 12:46:53;;;;;;;9.52;4.47;;;;;;;;;;4960524;28;20488;-69
2023/06/27 12:49:19;;;;;;;9.93;4.20;;;;;;;;;;4977905;28;20116;-69
2023/06/27 12:51:45;;;;;;;10.57;4.55;;;;;;;;;;4978162;28;20149;-69
2023/06/27 12:54:11;;;;;;;12.32;4.53;;;;;;;;;;4978232;28;20434;-69
2023/06/27 12:56:38;;;;;;;14.90;5.47;;;;;;;;;;4960427;28;20387;-69
2023/06/27 12:59:04;;;;;;;11.98;4.43;;;;;;;;;;4960855;28;20033;-69
2023/06/27 13:01:44;;;;;;;13.80;5.10;;;;;;;;;;4981154;28;20041;-69
2023/06/27 13:04:10;;;;;;;11.63;4.97;;;;;;;;;;4975618;28;20030;-69
2023/06/27 13:06:36;;;;;;;10.20;4.63;;;;;;;;;;4981395;28;20026;-69
2023/06/27 13:09:03;;;;;;;11.77;5.10;;;;;;;;;;4976676;28;20319;-69
2023/06/27 13:11:29;;;;;;;13.10;4.57;;;;;;;;;;4978396;28;20041;-69
2023/06/27 13:13:55;;;;;;;9.90;4.45;;;;;;;;;;4975718;28;20030;-69
2023/06/27 13:16:21;;;;;;;14.35;4.80;;;;;;;;;;4978494;28;20079;-69
2023/06/27 13:18:47;;;;;;;12.00;5.10;;;;;;;;;;4974192;28;20853;-69
2023/06/27 13:21:14;;;;;;;17.50;4.85;;;;;;;;;;4964747;28;20165;-69
2023/06/27 13:23:40;;;;;;;10.82;4.50;;;;;;;;;;4976280;28;20042;-69
2023/06/27 13:26:06;;;;;;;10.27;4.95;;;;;;;;;;4976725;28;20117;-68
2023/06/27 13:28:32;;;;;;;16.50;4.70;;;;;;;;;;4978572;28;20374;-69
2023/06/27 13:30:58;;;;;;;12.85;5.05;;;;;;;;;;4961509;28;20230;-69
2023/06/27 13:33:24;;;;;;;12.50;4.88;;;;;;;;;;4983736;28;20042;-69
2023/06/27 13:35:51;;;;;;;11.02;4.53;;;;;;;;;;4976101;28;20049;-69
2023/06/27 13:38:17;;;;;;;12.20;4.03;;;;;;;;;;4980870;28;20217;-69
2023/06/27 13:40:43;;;;;;;11.55;4.40;;;;;;;;;;4971260;28;20032;-68
2023/06/27 13:43:09;;;;;;;10.75;4.43;;;;;;;;;;4977154;28;20519;-68
2023/06/27 13:45:36;;;;;;;24.50;6.18;;;;;;;;;;4985828;28;20037;-68
2023/06/27 13:48:02;;;;;;;13.90;5.28;;;;;;;;;;4978940;28;20028;-68
2023/06/27 13:50:28;;;;;;;13.95;4.88;;;;;;;;;;4980932;28;20042;-70
2023/06/27 13:52:55;;;;;;;10.40;4.45;;;;;;;;;;4963054;28;20701;-68
2023/06/27 13:55:21;;;;;;;12.65;4.53;;;;;;;;;;4981097;28;20022;-68
2023/06/27 13:57:48;;;;;;;9.27;4.07;;;;;;;;;;4974965;28;20037;-69
2023/06/27 14:00:16;;;;;;;11.55;4.90;;;;;;;;;;4965614;28;20037;-69
2023/06/27 14:02:42;;;;;;;14.13;4.60;;;;;;;;;;4981858;28;20579;-69
2023/06/27 14:05:09;;;;;;;13.93;4.75;;;;;;;;;;4981687;28;20018;-69
2023/06/27 14:07:35;;;;;;;12.07;4.35;;;;;;;;;;4978421;28;20029;-68
2023/06/27 14:10:02;;;;;;;9.23;4.20;;;;;;;;;;4979485;28;20084;-68
2023/06/27 14:12:28;;;;;;;10.93;4.72;;;;;;;;;;4981664;28;20411;-68
2023/06/27 14:14:54;;;;;;;12.55;4.80;;;;;;;;;;4964692;28;20484;-69
2023/06/27 14:17:22;;;;;;;11.27;4.70;;;;;;;;;;4981395;28;20041;-69
2023/06/27 14:19:48;;;;;;;12.20;4.68;;;;;;;;;;4962998;28;20042;-68
2023/06/27 14:22:14;;;;;;;10.23;4.75;;;;;;;;;;4982670;28;20081;-68
2023/06/27 14:24:40;;;;;;;12.10;5.30;;;;;;;;;;4983500;28;20041;-69
2023/06/27 14:27:07;;;;;;;12.93;5.00;;;;;;;;;;4964897;28;20042;-69
2023/06/27 14:29:33;;;;;;;11.90;5.20;;;;;;;;;;4964588;28;20519;-68
2023/06/27 14:32:00;;;;;;;9.85;4.38;;;;;;;;;;4979805;28;21887;-68
2023/06/27 14:34:26;;;;;;;11.10;4.53;;;;;;;;;;4963738;28;20145;-68
2023/06/27 14:36:52;;;;;;;11.90;4.20;;;;;;;;;;4981048;28;20237;-68